createdAt,value
2023-02-17T00:00:32.617Z,14.00
2023-02-17T00:02:37.671Z,14.00
2023-02-17T00:04:39.391Z,14.00
2023-02-17T00:06:41.071Z,14.10
2023-02-17T00:08:42.806Z,14.10
2023-02-17T00:10:44.453Z,14.00
2023-02-17T00:12:46.160Z,14.10
2023-02-17T00:14:47.818Z,14.00
2023-02-17T00:16:49.440Z,14.00
2023-02-17T00:18:55.127Z,14.00
2023-02-17T00:20:56.866Z,14.00
2023-02-17T00:22:58.580Z,14.00
2023-02-17T00:25:00.244Z,14.00
2023-02-17T00:27:01.875Z,14.00
2023-02-17T00:29:03.562Z,14.00
2023-02-17T00:31:16.180Z,14.00
2023-02-17T00:33:17.921Z,14.00
2023-02-17T00:35:19.604Z,14.10
2023-02-17T00:37:21.534Z,14.10
2023-02-17T00:39:23.288Z,14.10
2023-02-17T00:41:25.878Z,14.10
2023-02-17T00:43:27.555Z,14.10
2023-02-17T00:45:29.251Z,14.10
2023-02-17T00:47:30.928Z,14.10
2023-02-17T00:49:32.574Z,14.00
2023-02-17T00:51:34.218Z,14.10
2023-02-17T00:53:35.900Z,14.10
2023-02-17T00:55:37.553Z,14.10
2023-02-17T00:57:39.209Z,14.00
2023-02-17T00:59:41.011Z,14.00
2023-02-17T01:01:42.808Z,14.00
2023-02-17T01:03:44.527Z,14.00
2023-02-17T01:05:46.938Z,14.00
2023-02-17T01:07:49.478Z,14.00
2023-02-17T01:09:51.131Z,14.00
2023-02-17T01:11:52.800Z,14.00
2023-02-17T01:13:54.947Z,14.00
2023-02-17T01:15:56.659Z,13.90
2023-02-17T01:17:58.556Z,13.90
2023-02-17T01:20:00.240Z,13.90
2023-02-17T01:22:01.891Z,13.90
2023-02-17T01:24:05.517Z,13.90
2023-02-17T01:26:07.360Z,13.90
2023-02-17T01:28:09.547Z,13.90
2023-02-17T01:30:11.527Z,13.80
2023-02-17T01:32:13.280Z,13.80
2023-02-17T01:34:14.982Z,13.80
2023-02-17T01:36:17.626Z,13.80
2023-02-17T01:38:19.316Z,13.80
2023-02-17T01:40:21.040Z,13.80
2023-02-17T01:42:22.751Z,13.80
2023-02-17T01:44:25.663Z,13.80
2023-02-17T01:46:27.310Z,13.80
2023-02-17T01:48:30.717Z,13.70
2023-02-17T01:50:35.457Z,13.80
2023-02-17T01:52:37.898Z,13.80
2023-02-17T01:54:44.787Z,13.70
2023-02-17T01:56:47.633Z,13.70
2023-02-17T01:58:52.462Z,13.70
2023-02-17T02:00:56.727Z,13.70
2023-02-17T02:02:58.897Z,13.70
2023-02-17T02:05:00.710Z,13.70
2023-02-17T02:07:03.472Z,13.70
2023-02-17T02:09:07.879Z,13.70
2023-02-17T02:11:09.559Z,13.70
2023-02-17T02:13:11.396Z,13.70
2023-02-17T02:15:15.121Z,13.70
2023-02-17T02:17:16.760Z,13.70
2023-02-17T02:19:33.263Z,13.70
2023-02-17T02:21:55.205Z,13.80
2023-02-17T02:24:04.697Z,13.80
2023-02-17T02:26:24.965Z,13.80
2023-02-17T02:28:26.627Z,13.80
2023-02-17T02:30:51.860Z,13.80
2023-02-17T02:33:03.632Z,13.80
2023-02-17T02:35:08.332Z,13.80
2023-02-17T02:37:24.779Z,13.80
2023-02-17T02:39:30.180Z,13.70
2023-02-17T02:41:38.023Z,13.80
2023-02-17T02:43:39.923Z,13.80
2023-02-17T02:45:41.763Z,13.80
2023-02-17T02:47:43.423Z,13.80
2023-02-17T02:49:46.245Z,13.80
2023-02-17T02:52:08.012Z,13.80
2023-02-17T02:54:36.903Z,13.80
2023-02-17T02:56:41.296Z,13.80
2023-02-17T02:58:45.855Z,13.80
2023-02-17T03:00:53.856Z,13.80
2023-02-17T03:02:59.080Z,13.80
2023-02-17T03:05:05.833Z,13.80
2023-02-17T03:07:21.140Z,13.80
2023-02-17T03:09:25.222Z,13.80
2023-02-17T03:11:32.621Z,13.80
2023-02-17T03:13:39.396Z,13.80
2023-02-17T03:15:43.461Z,13.80
2023-02-17T03:17:46.073Z,13.80
2023-02-17T03:19:47.838Z,13.80
2023-02-17T03:21:53.145Z,13.80
2023-02-17T03:23:54.805Z,13.80
2023-02-17T03:25:57.077Z,13.80
2023-02-17T03:27:58.795Z,13.70
2023-02-17T03:30:00.508Z,13.80
2023-02-17T03:32:02.266Z,13.80
2023-02-17T03:34:04.176Z,13.80
2023-02-17T03:36:06.418Z,13.80
2023-02-17T03:38:08.196Z,13.80
2023-02-17T03:40:10.022Z,13.80
2023-02-17T03:42:11.641Z,13.80
2023-02-17T03:44:13.270Z,13.80
2023-02-17T03:46:17.511Z,13.80
2023-02-17T03:48:19.183Z,13.80
2023-02-17T03:50:20.935Z,13.80
2023-02-17T03:52:22.545Z,13.80
2023-02-17T03:54:24.204Z,13.80
2023-02-17T03:56:25.915Z,13.80
2023-02-17T03:58:27.572Z,13.80
2023-02-17T04:00:29.406Z,13.80
2023-02-17T04:02:31.102Z,13.80
2023-02-17T04:04:32.779Z,13.70
2023-02-17T04:06:34.524Z,13.70
2023-02-17T04:08:36.388Z,13.70
2023-02-17T04:10:38.051Z,13.70
2023-02-17T04:12:39.680Z,13.70
2023-02-17T04:14:41.308Z,13.70
2023-02-17T04:16:42.937Z,13.70
2023-02-17T04:18:44.627Z,13.70
2023-02-17T04:20:47.859Z,13.80
2023-02-17T04:22:49.508Z,13.70
2023-02-17T04:24:51.242Z,13.80
2023-02-17T04:26:53.001Z,13.70
2023-02-17T04:28:54.642Z,13.70
2023-02-17T04:30:57.138Z,13.70
2023-02-17T04:32:59.236Z,13.70
2023-02-17T04:35:00.861Z,13.70
2023-02-17T04:37:02.471Z,13.70
2023-02-17T04:39:04.203Z,13.70
2023-02-17T04:41:06.944Z,13.70
2023-02-17T04:43:08.867Z,13.70
2023-02-17T04:45:10.576Z,13.70
2023-02-17T04:47:12.355Z,13.70
2023-02-17T04:49:14.001Z,13.70
2023-02-17T04:51:15.644Z,13.70
2023-02-17T04:53:17.478Z,13.70
2023-02-17T04:55:19.281Z,13.70
2023-02-17T04:57:20.936Z,13.70
2023-02-17T04:59:25.307Z,13.70
2023-02-17T05:01:27.378Z,13.70
2023-02-17T05:03:29.183Z,13.70
2023-02-17T05:05:31.049Z,13.70
2023-02-17T05:07:32.783Z,13.70
2023-02-17T05:09:34.387Z,13.70
2023-02-17T05:11:36.041Z,13.70
2023-02-17T05:13:37.783Z,13.70
2023-02-17T05:15:39.451Z,13.70
2023-02-17T05:17:41.147Z,13.70
2023-02-17T05:19:42.852Z,13.70
2023-02-17T05:21:44.466Z,13.70
2023-02-17T05:23:46.109Z,13.70
2023-02-17T05:25:48.199Z,13.70
2023-02-17T05:27:49.827Z,13.70
2023-02-17T05:29:51.998Z,13.70
2023-02-17T05:31:53.739Z,13.70
2023-02-17T05:33:55.751Z,13.70
2023-02-17T05:36:01.195Z,13.70
2023-02-17T05:38:02.806Z,13.70
2023-02-17T05:40:04.732Z,13.70
2023-02-17T05:42:06.450Z,13.60
2023-02-17T05:44:08.116Z,13.70
2023-02-17T05:46:10.320Z,13.60
2023-02-17T05:48:12.169Z,13.60
2023-02-17T05:50:13.892Z,13.60
2023-02-17T05:52:16.982Z,13.60
2023-02-17T05:54:18.643Z,13.60
2023-02-17T05:56:20.301Z,13.60
2023-02-17T05:58:22.031Z,13.60
2023-02-17T06:00:24.300Z,13.60
2023-02-17T06:02:25.963Z,13.60
2023-02-17T06:04:27.600Z,13.60
2023-02-17T06:06:29.219Z,13.60
2023-02-17T06:08:30.827Z,13.60
2023-02-17T06:10:32.531Z,13.60
2023-02-17T06:12:34.280Z,13.60
2023-02-17T06:14:35.974Z,13.60
2023-02-17T06:16:37.677Z,13.60
2023-02-17T06:18:39.364Z,13.60
2023-02-17T06:20:43.445Z,13.60
2023-02-17T06:22:45.104Z,13.60
2023-02-17T06:24:46.828Z,13.60
2023-02-17T06:26:48.463Z,13.60
2023-02-17T06:28:50.056Z,13.50
2023-02-17T06:30:51.770Z,13.60
2023-02-17T06:32:53.410Z,13.50
2023-02-17T06:34:55.068Z,13.50
2023-02-17T06:36:56.775Z,13.50
2023-02-17T06:38:58.509Z,13.50
2023-02-17T06:41:00.156Z,13.50
2023-02-17T06:43:01.834Z,13.50
2023-02-17T06:45:05.948Z,13.50
2023-02-17T06:47:07.653Z,13.60
2023-02-17T06:49:09.290Z,13.50
2023-02-17T06:51:11.028Z,13.50
2023-02-17T06:53:12.749Z,13.50
2023-02-17T06:55:14.605Z,13.50
2023-02-17T06:57:16.952Z,13.50
2023-02-17T06:59:18.599Z,13.50
2023-02-17T07:01:26.032Z,13.50
2023-02-17T07:03:27.711Z,13.50
2023-02-17T07:05:29.453Z,13.50
2023-02-17T07:07:31.081Z,13.50
2023-02-17T07:09:32.746Z,13.50
2023-02-17T07:11:34.415Z,13.50
2023-02-17T07:13:36.084Z,13.50
2023-02-17T07:15:37.786Z,13.50
2023-02-17T07:17:39.447Z,13.50
2023-02-17T07:19:41.068Z,13.50
2023-02-17T07:21:43.213Z,13.50
2023-02-17T07:23:44.948Z,13.50
2023-02-17T07:25:46.633Z,13.50
2023-02-17T07:27:48.227Z,13.50
2023-02-17T07:29:49.905Z,13.50
2023-02-17T07:31:51.689Z,13.40
2023-02-17T07:33:53.460Z,13.40
2023-02-17T07:35:55.120Z,13.40
2023-02-17T07:37:57.721Z,13.40
2023-02-17T07:39:59.346Z,13.40
2023-02-17T07:42:01.112Z,13.40
2023-02-17T07:44:02.843Z,13.40
2023-02-17T07:46:06.129Z,13.40
2023-02-17T07:48:08.081Z,13.40
2023-02-17T07:50:10.007Z,13.40
2023-02-17T07:52:11.655Z,13.40
2023-02-17T07:54:14.097Z,13.40
2023-02-17T07:56:16.509Z,13.40
2023-02-17T07:58:18.301Z,13.40
2023-02-17T08:00:20.244Z,13.40
2023-02-17T08:02:22.139Z,13.40
2023-02-17T08:04:24.089Z,13.40
2023-02-17T08:06:26.326Z,13.40
2023-02-17T08:08:46.623Z,13.40
2023-02-17T08:11:07.320Z,13.40
2023-02-17T08:13:19.479Z,13.40
2023-02-17T08:15:21.208Z,13.40
2023-02-17T08:17:22.900Z,13.40
2023-02-17T08:19:27.148Z,13.40
2023-02-17T08:21:31.703Z,13.40
2023-02-17T08:23:35.295Z,13.40
2023-02-17T08:25:37.150Z,13.40
2023-02-17T08:27:38.857Z,13.40
2023-02-17T08:29:40.771Z,13.40
2023-02-17T08:31:42.815Z,13.40
2023-02-17T08:33:44.586Z,13.40
2023-02-17T08:35:46.293Z,13.40
2023-02-17T08:37:50.861Z,13.40
2023-02-17T08:39:53.043Z,13.40
2023-02-17T08:41:54.948Z,13.40
2023-02-17T08:43:57.379Z,13.40
2023-02-17T08:45:59.114Z,13.40
2023-02-17T08:48:00.895Z,13.40
2023-02-17T08:50:04.413Z,13.40
2023-02-17T08:52:06.229Z,13.40
2023-02-17T08:54:08.836Z,13.40
2023-02-17T08:56:10.577Z,13.40
2023-02-17T08:58:12.342Z,13.40
2023-02-17T09:00:14.446Z,13.40
2023-02-17T09:02:16.598Z,13.40
2023-02-17T09:04:18.791Z,13.40
2023-02-17T09:06:21.499Z,13.50
2023-02-17T09:08:23.379Z,13.40
2023-02-17T09:10:25.153Z,13.40
2023-02-17T09:12:27.020Z,13.40
2023-02-17T09:14:28.895Z,13.40
2023-02-17T09:16:30.817Z,13.50
2023-02-17T09:18:32.576Z,13.40
2023-02-17T09:20:34.324Z,13.50
2023-02-17T09:22:36.221Z,13.50
2023-02-17T09:24:40.121Z,13.40
2023-02-17T09:26:41.996Z,13.40
2023-02-17T09:28:43.810Z,13.40
2023-02-17T09:30:45.847Z,13.40
2023-02-17T09:32:47.675Z,13.40
2023-02-17T09:34:50.471Z,13.40
2023-02-17T09:36:52.210Z,13.40
2023-02-17T09:38:54.662Z,13.50
2023-02-17T09:41:00.200Z,13.50
2023-02-17T09:43:02.455Z,13.50
2023-02-17T09:45:13.062Z,13.50
2023-02-17T09:47:23.601Z,13.50
2023-02-17T09:49:28.290Z,13.50
2023-02-17T09:51:31.759Z,13.50
2023-02-17T09:53:53.707Z,13.50
2023-02-17T09:55:57.687Z,13.50
2023-02-17T09:58:03.617Z,13.50
2023-02-17T10:00:16.068Z,13.50
2023-02-17T10:02:23.721Z,13.50
2023-02-17T10:04:35.836Z,13.50
2023-02-17T10:06:39.650Z,13.50
2023-02-17T10:08:58.738Z,13.50
2023-02-17T10:11:19.119Z,13.50
2023-02-17T10:13:22.197Z,13.50
2023-02-17T10:15:29.490Z,13.50
2023-02-17T10:17:46.524Z,13.50
2023-02-17T10:20:01.240Z,13.40
2023-02-17T10:22:23.249Z,13.50
2023-02-17T10:24:25.134Z,13.50
2023-02-17T10:26:43.634Z,13.50
2023-02-17T10:28:46.738Z,13.50
2023-02-17T10:30:54.410Z,13.50
2023-02-17T10:33:22.811Z,13.50
2023-02-17T10:35:33.069Z,13.50
2023-02-17T10:37:41.395Z,13.50
2023-02-17T10:39:47.288Z,13.50
2023-02-17T10:41:51.696Z,13.50
2023-02-17T10:43:53.893Z,13.50
2023-02-17T10:45:56.247Z,13.50
2023-02-17T10:48:01.921Z,13.50
2023-02-17T10:50:06.119Z,13.50
2023-02-17T10:52:30.586Z,13.50
2023-02-17T10:54:39.404Z,13.50
2023-02-17T10:56:49.529Z,13.50
2023-02-17T10:58:55.072Z,13.50
2023-02-17T11:00:57.470Z,13.60
2023-02-17T11:02:59.253Z,13.60
2023-02-17T11:05:01.019Z,13.60
2023-02-17T11:07:03.144Z,13.60
2023-02-17T11:09:06.034Z,13.60
2023-02-17T11:11:14.774Z,13.60
2023-02-17T11:13:30.127Z,13.60
2023-02-17T11:15:34.583Z,13.60
2023-02-17T11:17:38.480Z,13.60
2023-02-17T11:19:40.336Z,13.60
2023-02-17T11:21:43.205Z,13.60
2023-02-17T11:23:49.545Z,13.60
2023-02-17T11:25:59.006Z,13.60
2023-02-17T11:28:11.001Z,13.60
2023-02-17T11:30:16.224Z,13.60
2023-02-17T11:32:19.959Z,13.60
2023-02-17T11:34:23.516Z,13.60
2023-02-17T11:36:26.550Z,13.60
2023-02-17T11:38:32.723Z,13.60
2023-02-17T11:40:34.456Z,13.60
2023-02-17T11:42:36.172Z,13.70
2023-02-17T11:44:37.958Z,13.60
2023-02-17T11:46:57.831Z,13.70
2023-02-17T11:48:59.522Z,13.70
2023-02-17T11:51:12.850Z,13.70
2023-02-17T11:53:20.553Z,13.70
2023-02-17T11:55:37.480Z,13.70
2023-02-17T11:57:39.307Z,13.70
2023-02-17T11:59:47.160Z,13.70
2023-02-17T12:01:55.741Z,13.70
2023-02-17T12:04:16.295Z,13.70
2023-02-17T12:06:38.046Z,13.70
2023-02-17T12:08:39.725Z,13.70
2023-02-17T12:10:59.961Z,13.70
2023-02-17T12:13:10.602Z,13.70
2023-02-17T12:15:12.248Z,13.80
2023-02-17T12:17:22.397Z,13.80
2023-02-17T12:19:29.455Z,13.80
2023-02-17T12:21:47.377Z,13.80
2023-02-17T12:23:49.035Z,13.80
2023-02-17T12:25:54.185Z,13.80
2023-02-17T12:27:59.966Z,13.90
2023-02-17T12:30:20.240Z,13.90
2023-02-17T12:32:48.206Z,13.90
2023-02-17T12:34:53.687Z,13.90
2023-02-17T12:36:56.590Z,13.90
2023-02-17T12:39:03.091Z,13.90
2023-02-17T12:41:10.957Z,13.90
2023-02-17T12:43:25.034Z,13.90
2023-02-17T12:45:38.487Z,13.90
2023-02-17T12:47:53.286Z,13.90
2023-02-17T12:50:05.701Z,14.00
2023-02-17T12:52:19.275Z,14.00
2023-02-17T12:54:24.570Z,14.00
2023-02-17T12:56:28.211Z,14.00
2023-02-17T12:58:30.193Z,14.00
2023-02-17T13:00:38.256Z,14.00
2023-02-17T13:02:40.579Z,14.00
2023-02-17T13:04:45.544Z,14.00
2023-02-17T13:06:52.357Z,14.00
2023-02-17T13:09:04.503Z,14.00
2023-02-17T13:11:13.876Z,14.10
2023-02-17T13:13:29.288Z,14.00
2023-02-17T13:15:38.983Z,14.10
2023-02-17T13:17:51.768Z,14.10
2023-02-17T13:20:19.919Z,14.10
2023-02-17T13:22:23.255Z,14.10
2023-02-17T13:24:33.311Z,14.10
2023-02-17T13:26:36.084Z,14.10
2023-02-17T13:28:39.100Z,14.10
2023-02-17T13:30:42.275Z,14.10
2023-02-17T13:32:44.985Z,14.10
2023-02-17T13:34:46.918Z,14.10
2023-02-17T13:36:48.629Z,14.10
2023-02-17T13:38:56.427Z,14.10
2023-02-17T13:41:00.398Z,14.10
2023-02-17T13:43:09.493Z,14.10
2023-02-17T13:45:13.519Z,14.10
2023-02-17T13:47:15.304Z,14.10
2023-02-17T13:49:22.289Z,14.10
2023-02-17T13:51:26.044Z,14.20
2023-02-17T13:53:32.734Z,14.20
2023-02-17T13:55:34.500Z,14.20
2023-02-17T13:57:36.936Z,14.20
2023-02-17T13:59:38.901Z,14.20
2023-02-17T14:01:41.633Z,14.20
2023-02-17T14:03:47.010Z,14.20
2023-02-17T14:05:50.067Z,14.20
2023-02-17T14:07:52.921Z,14.30
2023-02-17T14:09:54.931Z,14.30
2023-02-17T14:11:57.284Z,14.30
2023-02-17T14:13:59.225Z,14.30
2023-02-17T14:16:01.262Z,14.30
2023-02-17T14:18:13.681Z,14.30
2023-02-17T14:20:30.182Z,14.30
2023-02-17T14:22:32.941Z,14.30
2023-02-17T14:24:36.061Z,14.30
2023-02-17T14:26:39.338Z,14.30
2023-02-17T14:28:41.162Z,14.30
2023-02-17T14:30:43.093Z,14.30
2023-02-17T14:32:45.084Z,14.30
2023-02-17T14:34:46.861Z,14.30
2023-02-17T14:36:48.592Z,14.30
2023-02-17T14:38:54.491Z,14.30
2023-02-17T14:40:56.258Z,14.40
2023-02-17T14:42:58.017Z,14.30
2023-02-17T14:44:59.769Z,14.40
2023-02-17T14:47:01.498Z,14.40
2023-02-17T14:49:03.643Z,14.40
2023-02-17T14:51:11.113Z,14.40
2023-02-17T14:53:25.253Z,14.30
2023-02-17T14:55:35.684Z,14.40
2023-02-17T14:57:37.468Z,14.30
2023-02-17T14:59:39.626Z,14.40
2023-02-17T15:01:41.579Z,14.40
2023-02-17T15:03:43.477Z,14.40
2023-02-17T15:05:45.507Z,14.40
2023-02-17T15:07:47.271Z,14.40
2023-02-17T15:09:49.221Z,14.40
2023-02-17T15:11:51.648Z,14.40
2023-02-17T15:13:54.201Z,14.40
2023-02-17T15:15:56.015Z,14.40
2023-02-17T15:17:57.736Z,14.40
2023-02-17T15:19:59.439Z,14.40
2023-02-17T15:22:01.487Z,14.40
2023-02-17T15:24:04.163Z,14.40
2023-02-17T15:26:06.105Z,14.40
2023-02-17T15:28:08.501Z,14.40
2023-02-17T15:30:11.571Z,14.40
2023-02-17T15:32:16.736Z,14.40
2023-02-17T15:34:20.043Z,14.40
2023-02-17T15:36:21.712Z,14.40
2023-02-17T15:38:24.003Z,14.30
2023-02-17T15:40:27.543Z,14.30
2023-02-17T15:42:29.364Z,14.30
2023-02-17T15:44:36.361Z,14.30
2023-02-17T15:46:39.201Z,14.30
2023-02-17T15:48:41.481Z,14.30
2023-02-17T15:50:43.246Z,14.30
2023-02-17T15:52:48.533Z,14.30
2023-02-17T15:54:50.323Z,14.30
2023-02-17T15:56:52.898Z,14.30
2023-02-17T15:58:55.033Z,14.30
2023-02-17T16:01:00.444Z,14.30
2023-02-17T16:03:02.482Z,14.30
2023-02-17T16:05:04.295Z,14.30
2023-02-17T16:07:06.036Z,14.30
2023-02-17T16:09:07.951Z,14.40
2023-02-17T16:11:12.042Z,14.30
2023-02-17T16:13:15.249Z,14.30
2023-02-17T16:15:18.734Z,14.30
2023-02-17T16:17:20.449Z,14.40
2023-02-17T16:19:22.284Z,14.30
2023-02-17T16:21:23.940Z,14.30
2023-02-17T16:23:25.641Z,14.30
2023-02-17T16:25:28.617Z,14.30
2023-02-17T16:27:30.313Z,14.40
2023-02-17T16:29:32.046Z,14.40
2023-02-17T16:31:35.811Z,14.30
2023-02-17T16:33:37.724Z,14.30
2023-02-17T16:35:39.751Z,14.40
2023-02-17T16:37:41.718Z,14.30
2023-02-17T16:39:47.263Z,14.30
2023-02-17T16:41:49.637Z,14.30
2023-02-17T16:43:51.335Z,14.30
2023-02-17T16:45:55.043Z,14.30
2023-02-17T16:47:58.394Z,14.30
2023-02-17T16:50:00.143Z,14.30
2023-02-17T16:52:03.473Z,14.40
2023-02-17T16:54:05.264Z,14.40
2023-02-17T16:56:13.825Z,14.40
2023-02-17T16:58:17.144Z,14.40
2023-02-17T17:00:21.497Z,14.40
2023-02-17T17:02:23.224Z,14.40
2023-02-17T17:04:25.103Z,14.40
2023-02-17T17:06:28.806Z,14.40
2023-02-17T17:08:30.470Z,14.40
2023-02-17T17:10:32.902Z,14.40
2023-02-17T17:12:34.681Z,14.40
2023-02-17T17:14:36.338Z,14.40
2023-02-17T17:16:40.138Z,14.40
2023-02-17T17:18:43.111Z,14.40
2023-02-17T17:20:45.312Z,14.40
2023-02-17T17:22:47.119Z,14.40
2023-02-17T17:24:48.773Z,14.30
2023-02-17T17:26:51.504Z,14.30
2023-02-17T17:28:53.609Z,14.30
2023-02-17T17:30:55.273Z,14.30
2023-02-17T17:32:57.060Z,14.30
2023-02-17T17:34:58.737Z,14.40
2023-02-17T17:37:00.419Z,14.40
2023-02-17T17:39:03.328Z,14.40
2023-02-17T17:41:05.060Z,14.40
2023-02-17T17:43:06.771Z,14.40
2023-02-17T17:45:08.616Z,14.40
2023-02-17T17:47:21.273Z,14.40
2023-02-17T17:49:30.089Z,14.40
2023-02-17T17:51:32.556Z,14.40
2023-02-17T17:53:48.964Z,14.40
2023-02-17T17:55:50.630Z,14.40
2023-02-17T17:57:53.627Z,14.40
2023-02-17T17:59:55.312Z,14.40
2023-02-17T18:01:57.023Z,14.50
2023-02-17T18:04:00.170Z,14.40
2023-02-17T18:06:02.561Z,14.40
2023-02-17T18:08:04.937Z,14.50
2023-02-17T18:10:07.845Z,14.40
2023-02-17T18:12:10.886Z,14.50
2023-02-17T18:14:13.991Z,14.50
2023-02-17T18:16:16.454Z,14.50
2023-02-17T18:18:18.397Z,14.40
2023-02-17T18:20:20.162Z,14.50
2023-02-17T18:22:22.234Z,14.50
2023-02-17T18:24:23.927Z,14.40
2023-02-17T18:26:25.829Z,14.50
2023-02-17T18:28:27.590Z,14.50
2023-02-17T18:30:29.466Z,14.50
2023-02-17T18:32:31.250Z,14.50
2023-02-17T18:34:33.036Z,14.50
2023-02-17T18:36:34.723Z,14.40
2023-02-17T18:38:36.570Z,14.40
2023-02-17T18:40:39.202Z,14.40
2023-02-17T18:42:41.836Z,14.40
2023-02-17T18:44:43.616Z,14.50
2023-02-17T18:46:45.328Z,14.40
2023-02-17T18:48:47.187Z,14.40
2023-02-17T18:50:50.461Z,14.40
2023-02-17T18:52:52.611Z,14.40
2023-02-17T18:54:54.340Z,14.40
2023-02-17T18:56:56.095Z,14.40
2023-02-17T18:58:58.359Z,14.40
2023-02-17T19:01:00.180Z,14.40
2023-02-17T19:03:03.681Z,14.50
2023-02-17T19:05:06.459Z,14.40
2023-02-17T19:07:08.419Z,14.40
2023-02-17T19:09:10.337Z,14.50
2023-02-17T19:11:12.720Z,14.50
2023-02-17T19:13:14.461Z,14.50
2023-02-17T19:15:20.649Z,14.50
2023-02-17T19:17:23.481Z,14.50
2023-02-17T19:19:25.306Z,14.50
2023-02-17T19:21:27.529Z,14.50
2023-02-17T19:23:29.416Z,14.50
2023-02-17T19:25:31.274Z,14.50
2023-02-17T19:27:33.180Z,14.50
2023-02-17T19:29:34.902Z,14.50
2023-02-17T19:31:36.873Z,14.50
2023-02-17T19:33:38.749Z,14.60
2023-02-17T19:35:41.574Z,14.60
2023-02-17T19:37:43.374Z,14.60
2023-02-17T19:39:45.540Z,14.60
2023-02-17T19:41:47.446Z,14.60
2023-02-17T19:43:49.526Z,14.60
2023-02-17T19:45:51.330Z,14.60
2023-02-17T19:47:53.512Z,14.60
2023-02-17T19:49:55.196Z,14.60
2023-02-17T19:51:56.976Z,14.60
2023-02-17T19:53:59.067Z,14.60
2023-02-17T19:56:27.238Z,14.60
2023-02-17T19:58:29.098Z,14.60
2023-02-17T20:00:30.765Z,14.60
2023-02-17T20:02:32.866Z,14.60
2023-02-17T20:04:34.656Z,14.60
2023-02-17T20:06:40.938Z,14.60
2023-02-17T20:08:45.648Z,14.60
2023-02-17T20:10:47.381Z,14.60
2023-02-17T20:12:49.213Z,14.60
2023-02-17T20:14:52.307Z,14.60
2023-02-17T20:16:55.620Z,14.60
2023-02-17T20:18:57.429Z,14.60
2023-02-17T20:20:59.175Z,14.60
2023-02-17T20:23:00.954Z,14.60
2023-02-17T20:25:02.819Z,14.60
2023-02-17T20:27:04.662Z,14.60
2023-02-17T20:29:06.747Z,14.60
2023-02-17T20:31:08.927Z,14.60
2023-02-17T20:33:11.354Z,14.60
2023-02-17T20:35:13.999Z,14.60
2023-02-17T20:37:15.682Z,14.60
2023-02-17T20:39:17.462Z,14.60
2023-02-17T20:41:20.097Z,14.60
2023-02-17T20:43:21.978Z,14.70
2023-02-17T20:45:23.757Z,14.60
2023-02-17T20:47:25.522Z,14.70
2023-02-17T20:49:27.600Z,14.60
2023-02-17T20:51:29.283Z,14.60
2023-02-17T20:53:31.022Z,14.70
2023-02-17T20:55:33.197Z,14.60
2023-02-17T20:57:35.073Z,14.60
2023-02-17T20:59:36.829Z,14.60
2023-02-17T21:01:39.258Z,14.60
2023-02-17T21:03:40.996Z,14.70
2023-02-17T21:05:42.768Z,14.70
2023-02-17T21:07:44.594Z,14.70
2023-02-17T21:09:46.769Z,14.70
2023-02-17T21:11:48.934Z,14.60
2023-02-17T21:13:50.830Z,14.60
2023-02-17T21:15:52.574Z,14.60
2023-02-17T21:17:54.274Z,14.60
2023-02-17T21:19:55.944Z,14.60
2023-02-17T21:21:57.747Z,14.60
2023-02-17T21:23:59.657Z,14.60
2023-02-17T21:26:01.443Z,14.60
2023-02-17T21:28:05.524Z,14.60
2023-02-17T21:30:08.267Z,14.60
2023-02-17T21:32:10.246Z,14.60
2023-02-17T21:34:11.968Z,14.60
2023-02-17T21:36:15.576Z,14.60
2023-02-17T21:38:20.368Z,14.60
2023-02-17T21:40:22.131Z,14.60
2023-02-17T21:42:45.456Z,14.60
2023-02-17T21:44:53.619Z,14.60
2023-02-17T21:46:55.354Z,14.60
2023-02-17T21:48:58.404Z,14.60
2023-02-17T21:51:03.939Z,14.60
2023-02-17T21:53:05.614Z,14.60
2023-02-17T21:55:07.439Z,14.60
2023-02-17T21:57:09.161Z,14.60
2023-02-17T21:59:10.961Z,14.60
2023-02-17T22:01:12.906Z,14.60
2023-02-17T22:03:14.703Z,14.60
2023-02-17T22:05:17.073Z,14.60
2023-02-17T22:07:18.726Z,14.60
2023-02-17T22:09:20.493Z,14.60
2023-02-17T22:11:24.025Z,14.60
2023-02-17T22:13:25.780Z,14.60
2023-02-17T22:15:27.593Z,14.60
2023-02-17T22:17:29.336Z,14.60
2023-02-17T22:19:31.623Z,14.60
2023-02-17T22:21:33.865Z,14.60
2023-02-17T22:23:35.853Z,14.60
2023-02-17T22:25:40.407Z,14.60
2023-02-17T22:27:42.123Z,14.60
2023-02-17T22:29:43.796Z,14.60
2023-02-17T22:31:45.594Z,14.60
2023-02-17T22:33:47.645Z,14.60
2023-02-17T22:35:56.840Z,14.60
2023-02-17T22:37:59.668Z,14.60
2023-02-17T22:40:01.422Z,14.60
2023-02-17T22:42:03.201Z,14.60
2023-02-17T22:44:05.166Z,14.60
2023-02-17T22:46:07.770Z,14.60
2023-02-17T22:48:09.629Z,14.60
2023-02-17T22:50:11.251Z,14.60
2023-02-17T22:52:12.986Z,14.60
2023-02-17T22:54:14.657Z,14.60
2023-02-17T22:56:16.666Z,14.60
2023-02-17T22:58:18.366Z,14.60
2023-02-17T23:00:20.071Z,14.60
2023-02-17T23:02:21.801Z,14.60
2023-02-17T23:04:23.511Z,14.60
2023-02-17T23:06:44.164Z,14.60
2023-02-17T23:08:49.233Z,14.60
2023-02-17T23:10:50.938Z,14.60
2023-02-17T23:12:52.665Z,14.60
2023-02-17T23:14:54.349Z,14.60
2023-02-17T23:16:58.706Z,14.60
2023-02-17T23:19:00.466Z,14.60
2023-02-17T23:21:09.931Z,14.60
2023-02-17T23:23:12.233Z,14.70
2023-02-17T23:25:14.052Z,14.60
2023-02-17T23:27:15.828Z,14.60
2023-02-17T23:29:18.057Z,14.60
2023-02-17T23:31:19.875Z,14.60
2023-02-17T23:33:22.259Z,14.70
2023-02-17T23:35:23.989Z,14.70
2023-02-17T23:37:25.705Z,14.60
2023-02-17T23:39:27.553Z,14.60
2023-02-17T23:41:29.265Z,14.60
2023-02-17T23:43:31.212Z,14.60
2023-02-17T23:45:33.333Z,14.60
2023-02-17T23:47:34.981Z,14.60
2023-02-17T23:49:36.678Z,14.60
2023-02-17T23:51:38.301Z,14.60
2023-02-17T23:53:40.013Z,14.60
2023-02-17T23:55:41.674Z,14.60
2023-02-17T23:57:43.290Z,14.60
2023-02-17T23:59:44.961Z,14.70
